sensor_id;sensor_type;location;lat;lon;timestamp;P1;durP1;ratioP1;P2;durP2;ratioP2
44165;SDS011;30476;53.468;9.826;2022-09-09T00:04:26;19.37;;;15.80;;
44165;SDS011;30476;53.468;9.826;2022-09-09T00:07:00;23.30;;;16.73;;
44165;SDS011;30476;53.468;9.826;2022-09-09T00:09:46;19.70;;;15.23;;
44165;SDS011;30476;53.468;9.826;2022-09-09T00:14:51;19.50;;;15.73;;
44165;SDS011;30476;53.468;9.826;2022-09-09T00:17:30;19.50;;;15.23;;
44165;SDS011;30476;53.468;9.826;2022-09-09T00:20:03;17.70;;;14.80;;
44165;SDS011;30476;53.468;9.826;2022-09-09T00:25:34;19.57;;;14.80;;
44165;SDS011;30476;53.468;9.826;2022-09-09T00:28:12;18.00;;;15.07;;
44165;SDS011;30476;53.468;9.826;2022-09-09T00:30:45;18.90;;;14.83;;
44165;SDS011;30476;53.468;9.826;2022-09-09T00:33:15;19.50;;;14.03;;
44165;SDS011;30476;53.468;9.826;2022-09-09T00:35:49;18.53;;;15.20;;
44165;SDS011;30476;53.468;9.826;2022-09-09T00:38:28;17.83;;;14.67;;
44165;SDS011;30476;53.468;9.826;2022-09-09T00:41:07;15.83;;;14.00;;
44165;SDS011;30476;53.468;9.826;2022-09-09T00:43:57;18.33;;;14.40;;
44165;SDS011;30476;53.468;9.826;2022-09-09T00:49:15;19.53;;;14.83;;
44165;SDS011;30476;53.468;9.826;2022-09-09T00:57:30;17.43;;;13.70;;
44165;SDS011;30476;53.468;9.826;2022-09-09T01:08:53;14.60;;;12.07;;
44165;SDS011;30476;53.468;9.826;2022-09-09T01:11:41;14.43;;;12.07;;
44165;SDS011;30476;53.468;9.826;2022-09-09T01:16:56;13.53;;;11.57;;
44165;SDS011;30476;53.468;9.826;2022-09-09T01:19:37;13.80;;;11.20;;
44165;SDS011;30476;53.468;9.826;2022-09-09T01:22:15;10.87;;;9.80;;
44165;SDS011;30476;53.468;9.826;2022-09-09T01:28:09;12.47;;;11.20;;
44165;SDS011;30476;53.468;9.826;2022-09-09T01:30:40;13.20;;;11.37;;
44165;SDS011;30476;53.468;9.826;2022-09-09T01:33:11;13.30;;;11.40;;
44165;SDS011;30476;53.468;9.826;2022-09-09T01:35:45;13.40;;;11.43;;
44165;SDS011;30476;53.468;9.826;2022-09-09T01:38:19;12.33;;;11.10;;
44165;SDS011;30476;53.468;9.826;2022-09-09T01:40:46;11.87;;;10.67;;
44165;SDS011;30476;53.468;9.826;2022-09-09T01:43:12;10.87;;;9.77;;
44165;SDS011;30476;53.468;9.826;2022-09-09T01:45:39;11.17;;;10.07;;
44165;SDS011;30476;53.468;9.826;2022-09-09T01:48:07;11.70;;;10.10;;
44165;SDS011;30476;53.468;9.826;2022-09-09T01:50:33;12.67;;;10.57;;
44165;SDS011;30476;53.468;9.826;2022-09-09T01:52:59;11.90;;;10.70;;
44165;SDS011;30476;53.468;9.826;2022-09-09T01:55:29;12.07;;;10.90;;
44165;SDS011;30476;53.468;9.826;2022-09-09T02:00:28;11.30;;;9.83;;
44165;SDS011;30476;53.468;9.826;2022-09-09T02:03:08;10.53;;;9.43;;
44165;SDS011;30476;53.468;9.826;2022-09-09T02:08:45;11.43;;;10.33;;
44165;SDS011;30476;53.468;9.826;2022-09-09T02:11:15;12.23;;;10.93;;
44165;SDS011;30476;53.468;9.826;2022-09-09T02:13:43;13.13;;;11.03;;
44165;SDS011;30476;53.468;9.826;2022-09-09T02:18:56;12.80;;;11.17;;
44165;SDS011;30476;53.468;9.826;2022-09-09T02:21:42;13.23;;;11.73;;
44165;SDS011;30476;53.468;9.826;2022-09-09T02:24:11;13.70;;;12.30;;
44165;SDS011;30476;53.468;9.826;2022-09-09T02:26:41;13.10;;;11.80;;
44165;SDS011;30476;53.468;9.826;2022-09-09T02:29:13;14.60;;;12.47;;
44165;SDS011;30476;53.468;9.826;2022-09-09T02:31:43;15.90;;;12.57;;
44165;SDS011;30476;53.468;9.826;2022-09-09T02:34:11;13.47;;;11.90;;
44165;SDS011;30476;53.468;9.826;2022-09-09T02:36:40;11.83;;;10.67;;
44165;SDS011;30476;53.468;9.826;2022-09-09T02:39:08;12.83;;;11.53;;
44165;SDS011;30476;53.468;9.826;2022-09-09T02:41:37;13.77;;;12.37;;
44165;SDS011;30476;53.468;9.826;2022-09-09T02:44:05;14.27;;;12.77;;
44165;SDS011;30476;53.468;9.826;2022-09-09T02:58:09;13.33;;;11.97;;
44165;SDS011;30476;53.468;9.826;2022-09-09T03:00:38;12.70;;;11.50;;
44165;SDS011;30476;53.468;9.826;2022-09-09T03:03:06;13.17;;;11.73;;
44165;SDS011;30476;53.468;9.826;2022-09-09T03:05:34;12.60;;;11.30;;
44165;SDS011;30476;53.468;9.826;2022-09-09T03:08:00;13.73;;;10.80;;
44165;SDS011;30476;53.468;9.826;2022-09-09T03:10:27;13.43;;;11.23;;
44165;SDS011;30476;53.468;9.826;2022-09-09T03:12:53;13.80;;;10.90;;
44165;SDS011;30476;53.468;9.826;2022-09-09T03:15:20;13.77;;;11.67;;
44165;SDS011;30476;53.468;9.826;2022-09-09T03:17:46;12.17;;;10.97;;
44165;SDS011;30476;53.468;9.826;2022-09-09T03:20:12;12.23;;;10.37;;
44165;SDS011;30476;53.468;9.826;2022-09-09T03:22:38;11.53;;;10.50;;
44165;SDS011;30476;53.468;9.826;2022-09-09T03:25:04;10.53;;;9.53;;
44165;SDS011;30476;53.468;9.826;2022-09-09T03:27:31;12.93;;;11.00;;
44165;SDS011;30476;53.468;9.826;2022-09-09T03:29:56;12.33;;;11.10;;
44165;SDS011;30476;53.468;9.826;2022-09-09T03:32:22;13.70;;;10.40;;
44165;SDS011;30476;53.468;9.826;2022-09-09T03:34:51;18.43;;;10.43;;
44165;SDS011;30476;53.468;9.826;2022-09-09T03:37:17;10.87;;;9.80;;
44165;SDS011;30476;53.468;9.826;2022-09-09T03:39:44;10.67;;;9.23;;
44165;SDS011;30476;53.468;9.826;2022-09-09T03:42:13;10.80;;;9.70;;
44165;SDS011;30476;53.468;9.826;2022-09-09T03:44:39;12.10;;;10.20;;
44165;SDS011;30476;53.468;9.826;2022-09-09T03:47:07;12.87;;;8.47;;
44165;SDS011;30476;53.468;9.826;2022-09-09T03:49:33;12.13;;;9.30;;
44165;SDS011;30476;53.468;9.826;2022-09-09T03:51:58;10.27;;;9.10;;
44165;SDS011;30476;53.468;9.826;2022-09-09T03:54:26;10.60;;;8.93;;
44165;SDS011;30476;53.468;9.826;2022-09-09T03:56:52;11.10;;;10.00;;
44165;SDS011;30476;53.468;9.826;2022-09-09T03:59:17;8.83;;;8.10;;
44165;SDS011;30476;53.468;9.826;2022-09-09T04:01:43;10.07;;;9.13;;
44165;SDS011;30476;53.468;9.826;2022-09-09T04:04:10;9.50;;;7.93;;
44165;SDS011;30476;53.468;9.826;2022-09-09T04:06:37;9.57;;;8.33;;
44165;SDS011;30476;53.468;9.826;2022-09-09T04:09:03;10.03;;;8.30;;
44165;SDS011;30476;53.468;9.826;2022-09-09T04:11:29;7.67;;;6.87;;
44165;SDS011;30476;53.468;9.826;2022-09-09T04:13:54;9.30;;;7.27;;
44165;SDS011;30476;53.468;9.826;2022-09-09T04:16:20;7.90;;;7.10;;
44165;SDS011;30476;53.468;9.826;2022-09-09T04:18:46;8.03;;;7.13;;
44165;SDS011;30476;53.468;9.826;2022-09-09T04:21:12;9.57;;;6.43;;
44165;SDS011;30476;53.468;9.826;2022-09-09T04:23:38;7.47;;;6.20;;
44165;SDS011;30476;53.468;9.826;2022-09-09T04:26:04;7.57;;;6.37;;
44165;SDS011;30476;53.468;9.826;2022-09-09T04:28:32;9.00;;;5.83;;
44165;SDS011;30476;53.468;9.826;2022-09-09T04:31:06;5.70;;;4.87;;
44165;SDS011;30476;53.468;9.826;2022-09-09T04:33:34;5.03;;;4.53;;
44165;SDS011;30476;53.468;9.826;2022-09-09T04:36:00;6.03;;;4.70;;
44165;SDS011;30476;53.468;9.826;2022-09-09T04:38:26;5.53;;;4.77;;
44165;SDS011;30476;53.468;9.826;2022-09-09T04:40:52;5.90;;;5.30;;
44165;SDS011;30476;53.468;9.826;2022-09-09T04:43:19;5.83;;;4.93;;
44165;SDS011;30476;53.468;9.826;2022-09-09T04:45:46;4.70;;;4.30;;
44165;SDS011;30476;53.468;9.826;2022-09-09T04:48:14;8.37;;;4.43;;
44165;SDS011;30476;53.468;9.826;2022-09-09T04:50:40;4.47;;;4.07;;
44165;SDS011;30476;53.468;9.826;2022-09-09T04:53:06;4.60;;;4.27;;
44165;SDS011;30476;53.468;9.826;2022-09-09T04:55:32;5.10;;;4.70;;
44165;SDS011;30476;53.468;9.826;2022-09-09T04:58:06;5.13;;;4.60;;
44165;SDS011;30476;53.468;9.826;2022-09-09T05:00:33;3.90;;;3.60;;
44165;SDS011;30476;53.468;9.826;2022-09-09T05:03:04;4.83;;;4.37;;
44165;SDS011;30476;53.468;9.826;2022-09-09T05:05:31;4.00;;;3.50;;
44165;SDS011;30476;53.468;9.826;2022-09-09T05:08:02;5.10;;;3.50;;
44165;SDS011;30476;53.468;9.826;2022-09-09T05:10:30;3.20;;;2.80;;
44165;SDS011;30476;53.468;9.826;2022-09-09T05:12:56;5.03;;;3.70;;
44165;SDS011;30476;53.468;9.826;2022-09-09T05:15:22;9.33;;;3.20;;
44165;SDS011;30476;53.468;9.826;2022-09-09T05:17:48;5.27;;;3.13;;
44165;SDS011;30476;53.468;9.826;2022-09-09T05:20:14;3.47;;;3.17;;
44165;SDS011;30476;53.468;9.826;2022-09-09T05:22:40;2.53;;;2.33;;
44165;SDS011;30476;53.468;9.826;2022-09-09T05:25:05;3.07;;;2.87;;
44165;SDS011;30476;53.468;9.826;2022-09-09T05:27:36;3.47;;;3.17;;
44165;SDS011;30476;53.468;9.826;2022-09-09T05:30:02;6.30;;;2.77;;
44165;SDS011;30476;53.468;9.826;2022-09-09T05:32:29;4.87;;;4.37;;
44165;SDS011;30476;53.468;9.826;2022-09-09T05:34:59;3.30;;;2.90;;
44165;SDS011;30476;53.468;9.826;2022-09-09T05:37:25;3.33;;;3.07;;
44165;SDS011;30476;53.468;9.826;2022-09-09T05:39:50;4.33;;;2.73;;
44165;SDS011;30476;53.468;9.826;2022-09-09T05:42:16;4.60;;;3.10;;
44165;SDS011;30476;53.468;9.826;2022-09-09T05:44:42;4.87;;;2.77;;
44165;SDS011;30476;53.468;9.826;2022-09-09T05:47:08;5.30;;;3.90;;
44165;SDS011;30476;53.468;9.826;2022-09-09T05:49:34;3.60;;;2.90;;
44165;SDS011;30476;53.468;9.826;2022-09-09T05:52:00;3.37;;;3.10;;
44165;SDS011;30476;53.468;9.826;2022-09-09T05:54:28;4.30;;;2.60;;
44165;SDS011;30476;53.468;9.826;2022-09-09T05:56:54;3.77;;;3.00;;
44165;SDS011;30476;53.468;9.826;2022-09-09T05:59:20;3.73;;;3.23;;
44165;SDS011;30476;53.468;9.826;2022-09-09T06:01:48;3.93;;;3.30;;
44165;SDS011;30476;53.468;9.826;2022-09-09T06:04:14;3.80;;;3.33;;
44165;SDS011;30476;53.468;9.826;2022-09-09T06:06:40;4.17;;;3.43;;
44165;SDS011;30476;53.468;9.826;2022-09-09T06:09:07;4.27;;;3.83;;
44165;SDS011;30476;53.468;9.826;2022-09-09T06:11:36;5.63;;;3.63;;
44165;SDS011;30476;53.468;9.826;2022-09-09T06:14:03;3.50;;;3.30;;
44165;SDS011;30476;53.468;9.826;2022-09-09T06:16:30;3.77;;;3.43;;
44165;SDS011;30476;53.468;9.826;2022-09-09T06:18:57;3.97;;;3.53;;
44165;SDS011;30476;53.468;9.826;2022-09-09T06:21:24;3.60;;;3.23;;
44165;SDS011;30476;53.468;9.826;2022-09-09T06:23:52;4.03;;;2.77;;
44165;SDS011;30476;53.468;9.826;2022-09-09T06:28:46;3.77;;;3.30;;
44165;SDS011;30476;53.468;9.826;2022-09-09T06:31:14;3.60;;;3.40;;
44165;SDS011;30476;53.468;9.826;2022-09-09T06:33:48;3.60;;;3.37;;
44165;SDS011;30476;53.468;9.826;2022-09-09T06:36:19;3.80;;;3.47;;
44165;SDS011;30476;53.468;9.826;2022-09-09T06:38:46;4.37;;;3.97;;
44165;SDS011;30476;53.468;9.826;2022-09-09T06:41:14;4.07;;;3.77;;
44165;SDS011;30476;53.468;9.826;2022-09-09T06:43:45;3.40;;;3.10;;
44165;SDS011;30476;53.468;9.826;2022-09-09T06:46:12;3.33;;;3.03;;
44165;SDS011;30476;53.468;9.826;2022-09-09T06:48:40;3.67;;;3.37;;
44165;SDS011;30476;53.468;9.826;2022-09-09T06:51:19;3.17;;;2.87;;
44165;SDS011;30476;53.468;9.826;2022-09-09T06:53:47;4.00;;;3.57;;
44165;SDS011;30476;53.468;9.826;2022-09-09T06:58:49;3.57;;;3.10;;
44165;SDS011;30476;53.468;9.826;2022-09-09T07:01:20;3.60;;;3.20;;
44165;SDS011;30476;53.468;9.826;2022-09-09T07:03:49;5.67;;;3.40;;
44165;SDS011;30476;53.468;9.826;2022-09-09T07:06:17;3.13;;;2.83;;
44165;SDS011;30476;53.468;9.826;2022-09-09T07:08:49;3.33;;;2.97;;
44165;SDS011;30476;53.468;9.826;2022-09-09T07:11:16;8.83;;;4.20;;
44165;SDS011;30476;53.468;9.826;2022-09-09T07:13:43;2.40;;;2.20;;
44165;SDS011;30476;53.468;9.826;2022-09-09T07:16:09;3.73;;;3.37;;
44165;SDS011;30476;53.468;9.826;2022-09-09T07:18:38;2.77;;;2.50;;
44165;SDS011;30476;53.468;9.826;2022-09-09T07:21:05;3.43;;;2.70;;
44165;SDS011;30476;53.468;9.826;2022-09-09T07:23:32;6.97;;;3.43;;
44165;SDS011;30476;53.468;9.826;2022-09-09T07:25:58;3.20;;;3.00;;
44165;SDS011;30476;53.468;9.826;2022-09-09T07:28:24;3.80;;;3.50;;
44165;SDS011;30476;53.468;9.826;2022-09-09T07:33:21;4.07;;;3.77;;
44165;SDS011;30476;53.468;9.826;2022-09-09T07:35:47;2.93;;;2.73;;
44165;SDS011;30476;53.468;9.826;2022-09-09T07:38:13;4.00;;;2.97;;
44165;SDS011;30476;53.468;9.826;2022-09-09T07:40:40;3.50;;;2.90;;
44165;SDS011;30476;53.468;9.826;2022-09-09T07:43:06;3.20;;;3.00;;
44165;SDS011;30476;53.468;9.826;2022-09-09T07:45:32;3.00;;;2.80;;
44165;SDS011;30476;53.468;9.826;2022-09-09T07:47:59;3.80;;;2.87;;
44165;SDS011;30476;53.468;9.826;2022-09-09T07:50:26;3.47;;;3.00;;
44165;SDS011;30476;53.468;9.826;2022-09-09T07:52:52;3.43;;;2.80;;
44165;SDS011;30476;53.468;9.826;2022-09-09T07:55:19;4.23;;;3.07;;
44165;SDS011;30476;53.468;9.826;2022-09-09T07:57:53;3.97;;;2.73;;
44165;SDS011;30476;53.468;9.826;2022-09-09T08:00:20;2.87;;;2.67;;
44165;SDS011;30476;53.468;9.826;2022-09-09T08:02:47;3.27;;;2.97;;
44165;SDS011;30476;53.468;9.826;2022-09-09T08:05:13;2.40;;;2.30;;
44165;SDS011;30476;53.468;9.826;2022-09-09T08:07:40;5.57;;;2.77;;
44165;SDS011;30476;53.468;9.826;2022-09-09T08:10:06;3.10;;;2.90;;
44165;SDS011;30476;53.468;9.826;2022-09-09T08:12:32;3.30;;;3.00;;
44165;SDS011;30476;53.468;9.826;2022-09-09T08:14:58;4.80;;;3.03;;
44165;SDS011;30476;53.468;9.826;2022-09-09T08:17:23;3.30;;;3.00;;
44165;SDS011;30476;53.468;9.826;2022-09-09T08:19:49;3.60;;;2.23;;
44165;SDS011;30476;53.468;9.826;2022-09-09T08:22:15;3.10;;;2.20;;
44165;SDS011;30476;53.468;9.826;2022-09-09T08:24:41;2.20;;;2.10;;
44165;SDS011;30476;53.468;9.826;2022-09-09T08:27:07;2.07;;;1.97;;
44165;SDS011;30476;53.468;9.826;2022-09-09T08:29:35;4.40;;;2.43;;
44165;SDS011;30476;53.468;9.826;2022-09-09T08:32:03;2.90;;;2.60;;
44165;SDS011;30476;53.468;9.826;2022-09-09T08:34:29;3.23;;;2.30;;
44165;SDS011;30476;53.468;9.826;2022-09-09T08:36:56;1.90;;;1.80;;
44165;SDS011;30476;53.468;9.826;2022-09-09T08:39:22;2.10;;;2.00;;
44165;SDS011;30476;53.468;9.826;2022-09-09T08:49:50;3.03;;;2.03;;
44165;SDS011;30476;53.468;9.826;2022-09-09T08:52:39;2.90;;;1.87;;
44165;SDS011;30476;53.468;9.826;2022-09-09T08:57:46;2.40;;;1.73;;
44165;SDS011;30476;53.468;9.826;2022-09-09T09:00:14;1.67;;;1.40;;
44165;SDS011;30476;53.468;9.826;2022-09-09T09:02:45;2.40;;;1.40;;
44165;SDS011;30476;53.468;9.826;2022-09-09T09:05:45;2.10;;;1.40;;
44165;SDS011;30476;53.468;9.826;2022-09-09T09:08:28;1.53;;;1.20;;
44165;SDS011;30476;53.468;9.826;2022-09-09T09:11:03;3.90;;;2.00;;
44165;SDS011;30476;53.468;9.826;2022-09-09T09:16:34;1.37;;;1.20;;
44165;SDS011;30476;53.468;9.826;2022-09-09T09:19:13;2.07;;;1.83;;
44165;SDS011;30476;53.468;9.826;2022-09-09T09:24:19;1.40;;;1.00;;
44165;SDS011;30476;53.468;9.826;2022-09-09T09:26:48;1.53;;;1.30;;
44165;SDS011;30476;53.468;9.826;2022-09-09T09:29:17;4.53;;;1.43;;
44165;SDS011;30476;53.468;9.826;2022-09-09T09:31:48;3.63;;;1.27;;
44165;SDS011;30476;53.468;9.826;2022-09-09T09:34:20;2.23;;;1.00;;
44165;SDS011;30476;53.468;9.826;2022-09-09T09:36:52;1.50;;;1.00;;
44165;SDS011;30476;53.468;9.826;2022-09-09T09:41:53;2.17;;;1.10;;
44165;SDS011;30476;53.468;9.826;2022-09-09T09:44:30;2.60;;;1.00;;
44165;SDS011;30476;53.468;9.826;2022-09-09T09:49:38;1.37;;;1.00;;
44165;SDS011;30476;53.468;9.826;2022-09-09T09:52:05;1.07;;;0.80;;
44165;SDS011;30476;53.468;9.826;2022-09-09T09:54:33;1.70;;;0.70;;
44165;SDS011;30476;53.468;9.826;2022-09-09T09:59:37;1.53;;;0.80;;
44165;SDS011;30476;53.468;9.826;2022-09-09T10:02:16;0.83;;;0.80;;
44165;SDS011;30476;53.468;9.826;2022-09-09T10:04:44;1.10;;;0.67;;
44165;SDS011;30476;53.468;9.826;2022-09-09T10:07:20;0.97;;;0.70;;
44165;SDS011;30476;53.468;9.826;2022-09-09T10:09:50;0.77;;;0.77;;
44165;SDS011;30476;53.468;9.826;2022-09-09T10:15:18;0.90;;;0.90;;
44165;SDS011;30476;53.468;9.826;2022-09-09T10:24:14;2.30;;;0.70;;
44165;SDS011;30476;53.468;9.826;2022-09-09T10:26:55;1.80;;;0.80;;
44165;SDS011;30476;53.468;9.826;2022-09-09T10:35:09;6.00;;;5.40;;
44165;SDS011;30476;53.468;9.826;2022-09-09T10:40:42;63.60;;;53.10;;
44165;SDS011;30476;53.468;9.826;2022-09-09T10:46:06;2.60;;;1.93;;
44165;SDS011;30476;53.468;9.826;2022-09-09T10:56:42;0.93;;;0.93;;
44165;SDS011;30476;53.468;9.826;2022-09-09T10:59:14;1.20;;;1.00;;
44165;SDS011;30476;53.468;9.826;2022-09-09T11:01:47;1.90;;;1.20;;
44165;SDS011;30476;53.468;9.826;2022-09-09T11:04:24;2.37;;;1.33;;
44165;SDS011;30476;53.468;9.826;2022-09-09T11:06:56;2.23;;;1.30;;
44165;SDS011;30476;53.468;9.826;2022-09-09T11:09:23;1.30;;;1.20;;
44165;SDS011;30476;53.468;9.826;2022-09-09T11:11:53;1.93;;;1.20;;
44165;SDS011;30476;53.468;9.826;2022-09-09T11:17:01;2.00;;;1.00;;
44165;SDS011;30476;53.468;9.826;2022-09-09T11:22:23;2.80;;;1.30;;
44165;SDS011;30476;53.468;9.826;2022-09-09T11:25:25;1.20;;;1.03;;
44165;SDS011;30476;53.468;9.826;2022-09-09T11:30:58;1.83;;;1.10;;
44165;SDS011;30476;53.468;9.826;2022-09-09T11:33:37;1.30;;;1.10;;
44165;SDS011;30476;53.468;9.826;2022-09-09T11:41:52;1.07;;;1.00;;
44165;SDS011;30476;53.468;9.826;2022-09-09T11:44:23;3.43;;;1.30;;
44165;SDS011;30476;53.468;9.826;2022-09-09T11:46:55;1.47;;;1.37;;
44165;SDS011;30476;53.468;9.826;2022-09-09T11:49:28;1.43;;;1.30;;
44165;SDS011;30476;53.468;9.826;2022-09-09T11:51:56;1.33;;;1.10;;
44165;SDS011;30476;53.468;9.826;2022-09-09T11:54:33;1.23;;;0.90;;
44165;SDS011;30476;53.468;9.826;2022-09-09T12:06:10;3.37;;;1.17;;
44165;SDS011;30476;53.468;9.826;2022-09-09T12:08:45;1.40;;;1.20;;
44165;SDS011;30476;53.468;9.826;2022-09-09T12:11:28;1.67;;;1.30;;
44165;SDS011;30476;53.468;9.826;2022-09-09T12:13:57;1.00;;;1.00;;
44165;SDS011;30476;53.468;9.826;2022-09-09T12:19:06;2.13;;;1.03;;
44165;SDS011;30476;53.468;9.826;2022-09-09T12:24:43;0.90;;;0.90;;
44165;SDS011;30476;53.468;9.826;2022-09-09T12:27:44;1.50;;;0.80;;
44165;SDS011;30476;53.468;9.826;2022-09-09T12:30:22;2.33;;;1.17;;
44165;SDS011;30476;53.468;9.826;2022-09-09T12:33:08;1.33;;;0.90;;
44165;SDS011;30476;53.468;9.826;2022-09-09T12:35:38;2.97;;;0.97;;
44165;SDS011;30476;53.468;9.826;2022-09-09T12:38:07;1.80;;;1.00;;
44165;SDS011;30476;53.468;9.826;2022-09-09T12:40:41;2.70;;;1.37;;
44165;SDS011;30476;53.468;9.826;2022-09-09T12:43:17;2.47;;;1.03;;
44165;SDS011;30476;53.468;9.826;2022-09-09T12:45:45;1.97;;;1.30;;
44165;SDS011;30476;53.468;9.826;2022-09-09T12:48:11;1.20;;;1.10;;
44165;SDS011;30476;53.468;9.826;2022-09-09T12:50:50;2.17;;;1.97;;
44165;SDS011;30476;53.468;9.826;2022-09-09T12:56:06;2.90;;;1.00;;
44165;SDS011;30476;53.468;9.826;2022-09-09T12:58:35;2.80;;;1.13;;
44165;SDS011;30476;53.468;9.826;2022-09-09T13:01:03;3.00;;;1.27;;
44165;SDS011;30476;53.468;9.826;2022-09-09T13:03:31;1.20;;;1.10;;
44165;SDS011;30476;53.468;9.826;2022-09-09T13:06:09;2.20;;;1.20;;
44165;SDS011;30476;53.468;9.826;2022-09-09T13:08:37;1.10;;;0.90;;
44165;SDS011;30476;53.468;9.826;2022-09-09T13:11:06;1.57;;;1.47;;
44165;SDS011;30476;53.468;9.826;2022-09-09T13:13:39;1.00;;;0.90;;
44165;SDS011;30476;53.468;9.826;2022-09-09T13:16:07;0.70;;;0.70;;
44165;SDS011;30476;53.468;9.826;2022-09-09T13:18:52;0.80;;;0.80;;
44165;SDS011;30476;53.468;9.826;2022-09-09T13:21:18;1.17;;;1.10;;
44165;SDS011;30476;53.468;9.826;2022-09-09T13:23:48;1.20;;;1.10;;
44165;SDS011;30476;53.468;9.826;2022-09-09T13:26:20;1.43;;;1.10;;
44165;SDS011;30476;53.468;9.826;2022-09-09T13:28:51;1.57;;;1.10;;
44165;SDS011;30476;53.468;9.826;2022-09-09T13:31:22;1.60;;;1.43;;
44165;SDS011;30476;53.468;9.826;2022-09-09T13:33:52;3.57;;;2.07;;
44165;SDS011;30476;53.468;9.826;2022-09-09T13:36:27;1.70;;;1.60;;
44165;SDS011;30476;53.468;9.826;2022-09-09T13:38:55;1.20;;;1.20;;
44165;SDS011;30476;53.468;9.826;2022-09-09T13:41:34;1.50;;;1.10;;
44165;SDS011;30476;53.468;9.826;2022-09-09T13:44:02;1.57;;;1.47;;
44165;SDS011;30476;53.468;9.826;2022-09-09T13:51:41;1.70;;;1.60;;
44165;SDS011;30476;53.468;9.826;2022-09-09T13:54:10;1.97;;;1.57;;
44165;SDS011;30476;53.468;9.826;2022-09-09T13:56:37;2.30;;;1.77;;
44165;SDS011;30476;53.468;9.826;2022-09-09T13:59:05;1.93;;;1.73;;
44165;SDS011;30476;53.468;9.826;2022-09-09T14:01:34;1.77;;;1.40;;
44165;SDS011;30476;53.468;9.826;2022-09-09T14:04:00;1.60;;;1.50;;
44165;SDS011;30476;53.468;9.826;2022-09-09T14:06:26;1.50;;;1.40;;
44165;SDS011;30476;53.468;9.826;2022-09-09T14:08:52;1.50;;;1.40;;
44165;SDS011;30476;53.468;9.826;2022-09-09T14:11:20;1.57;;;1.47;;
44165;SDS011;30476;53.468;9.826;2022-09-09T14:13:47;1.60;;;1.50;;
44165;SDS011;30476;53.468;9.826;2022-09-09T14:16:15;2.30;;;1.70;;
44165;SDS011;30476;53.468;9.826;2022-09-09T14:18:43;2.00;;;1.53;;
44165;SDS011;30476;53.468;9.826;2022-09-09T14:21:10;4.73;;;1.93;;
44165;SDS011;30476;53.468;9.826;2022-09-09T14:23:36;2.83;;;1.60;;
44165;SDS011;30476;53.468;9.826;2022-09-09T14:26:03;1.83;;;1.70;;
44165;SDS011;30476;53.468;9.826;2022-09-09T14:28:33;1.50;;;1.40;;
44165;SDS011;30476;53.468;9.826;2022-09-09T14:31:01;1.80;;;1.33;;
44165;SDS011;30476;53.468;9.826;2022-09-09T14:33:27;1.97;;;1.60;;
44165;SDS011;30476;53.468;9.826;2022-09-09T14:35:57;2.57;;;2.37;;
44165;SDS011;30476;53.468;9.826;2022-09-09T14:38:24;1.47;;;1.37;;
44165;SDS011;30476;53.468;9.826;2022-09-09T14:40:50;1.27;;;1.20;;
44165;SDS011;30476;53.468;9.826;2022-09-09T14:43:16;2.10;;;1.97;;
44165;SDS011;30476;53.468;9.826;2022-09-09T14:45:42;2.97;;;1.50;;
44165;SDS011;30476;53.468;9.826;2022-09-09T14:48:08;1.53;;;1.43;;
44165;SDS011;30476;53.468;9.826;2022-09-09T14:50:34;2.13;;;1.50;;
44165;SDS011;30476;53.468;9.826;2022-09-09T14:53:05;2.37;;;1.80;;
44165;SDS011;30476;53.468;9.826;2022-09-09T14:55:31;2.80;;;1.53;;
44165;SDS011;30476;53.468;9.826;2022-09-09T14:57:57;1.57;;;1.47;;
44165;SDS011;30476;53.468;9.826;2022-09-09T15:00:23;3.03;;;1.60;;
44165;SDS011;30476;53.468;9.826;2022-09-09T15:02:53;2.63;;;1.70;;
44165;SDS011;30476;53.468;9.826;2022-09-09T15:05:19;1.60;;;1.50;;
44165;SDS011;30476;53.468;9.826;2022-09-09T15:07:45;1.90;;;1.50;;
44165;SDS011;30476;53.468;9.826;2022-09-09T15:10:13;1.60;;;1.50;;
44165;SDS011;30476;53.468;9.826;2022-09-09T15:12:39;1.80;;;1.70;;
44165;SDS011;30476;53.468;9.826;2022-09-09T15:15:07;2.83;;;1.70;;
44165;SDS011;30476;53.468;9.826;2022-09-09T15:17:33;1.70;;;1.60;;
44165;SDS011;30476;53.468;9.826;2022-09-09T15:19:59;1.70;;;1.60;;
44165;SDS011;30476;53.468;9.826;2022-09-09T15:22:25;2.00;;;1.90;;
44165;SDS011;30476;53.468;9.826;2022-09-09T15:24:51;2.03;;;1.93;;
44165;SDS011;30476;53.468;9.826;2022-09-09T15:27:17;1.63;;;1.50;;
44165;SDS011;30476;53.468;9.826;2022-09-09T15:29:43;1.73;;;1.63;;
44165;SDS011;30476;53.468;9.826;2022-09-09T15:32:09;2.13;;;2.00;;
44165;SDS011;30476;53.468;9.826;2022-09-09T15:34:35;1.90;;;1.80;;
44165;SDS011;30476;53.468;9.826;2022-09-09T15:37:01;2.50;;;2.40;;
44165;SDS011;30476;53.468;9.826;2022-09-09T15:39:27;1.90;;;1.80;;
44165;SDS011;30476;53.468;9.826;2022-09-09T15:41:53;2.73;;;1.77;;
44165;SDS011;30476;53.468;9.826;2022-09-09T15:44:19;1.87;;;1.77;;
44165;SDS011;30476;53.468;9.826;2022-09-09T15:46:45;2.27;;;2.13;;
44165;SDS011;30476;53.468;9.826;2022-09-09T15:49:16;2.07;;;1.80;;
44165;SDS011;30476;53.468;9.826;2022-09-09T15:51:47;1.77;;;1.67;;
44165;SDS011;30476;53.468;9.826;2022-09-09T15:54:23;1.87;;;1.53;;
44165;SDS011;30476;53.468;9.826;2022-09-09T15:56:52;2.30;;;1.77;;
44165;SDS011;30476;53.468;9.826;2022-09-09T15:59:20;2.63;;;1.50;;
44165;SDS011;30476;53.468;9.826;2022-09-09T16:01:50;3.27;;;1.60;;
44165;SDS011;30476;53.468;9.826;2022-09-09T16:04:19;1.60;;;1.50;;
44165;SDS011;30476;53.468;9.826;2022-09-09T16:07:09;1.30;;;1.20;;
44165;SDS011;30476;53.468;9.826;2022-09-09T16:09:34;1.50;;;1.40;;
44165;SDS011;30476;53.468;9.826;2022-09-09T16:12:01;1.37;;;1.10;;
44165;SDS011;30476;53.468;9.826;2022-09-09T16:14:31;1.60;;;1.10;;
44165;SDS011;30476;53.468;9.826;2022-09-09T16:17:01;1.93;;;1.20;;
44165;SDS011;30476;53.468;9.826;2022-09-09T16:19:28;1.67;;;1.20;;
44165;SDS011;30476;53.468;9.826;2022-09-09T16:21:53;1.17;;;1.07;;
44165;SDS011;30476;53.468;9.826;2022-09-09T16:24:20;2.40;;;1.20;;
44165;SDS011;30476;53.468;9.826;2022-09-09T16:26:47;1.30;;;1.20;;
44165;SDS011;30476;53.468;9.826;2022-09-09T16:29:14;1.90;;;1.50;;
44165;SDS011;30476;53.468;9.826;2022-09-09T16:31:42;1.40;;;1.30;;
44165;SDS011;30476;53.468;9.826;2022-09-09T16:34:09;1.30;;;1.20;;
44165;SDS011;30476;53.468;9.826;2022-09-09T16:36:36;1.20;;;1.10;;
44165;SDS011;30476;53.468;9.826;2022-09-09T16:39:05;1.10;;;1.10;;
44165;SDS011;30476;53.468;9.826;2022-09-09T16:41:34;1.20;;;1.10;;
44165;SDS011;30476;53.468;9.826;2022-09-09T16:44:02;1.73;;;1.63;;
44165;SDS011;30476;53.468;9.826;2022-09-09T16:46:30;1.07;;;1.07;;
44165;SDS011;30476;53.468;9.826;2022-09-09T16:48:59;0.90;;;0.90;;
44165;SDS011;30476;53.468;9.826;2022-09-09T16:51:30;1.43;;;1.33;;
44165;SDS011;30476;53.468;9.826;2022-09-09T16:53:58;1.37;;;1.00;;
44165;SDS011;30476;53.468;9.826;2022-09-09T16:56:26;2.70;;;1.00;;
44165;SDS011;30476;53.468;9.826;2022-09-09T16:58:57;1.53;;;1.43;;
44165;SDS011;30476;53.468;9.826;2022-09-09T17:01:26;1.80;;;1.20;;
44165;SDS011;30476;53.468;9.826;2022-09-09T17:03:54;3.60;;;1.17;;
44165;SDS011;30476;53.468;9.826;2022-09-09T17:06:21;1.40;;;1.10;;
44165;SDS011;30476;53.468;9.826;2022-09-09T17:08:47;0.90;;;0.90;;
44165;SDS011;30476;53.468;9.826;2022-09-09T17:13:42;1.30;;;1.20;;
44165;SDS011;30476;53.468;9.826;2022-09-09T17:16:08;3.13;;;1.20;;
44165;SDS011;30476;53.468;9.826;2022-09-09T17:18:35;1.47;;;1.10;;
44165;SDS011;30476;53.468;9.826;2022-09-09T17:21:05;1.30;;;1.20;;
44165;SDS011;30476;53.468;9.826;2022-09-09T17:23:33;2.80;;;1.20;;
44165;SDS011;30476;53.468;9.826;2022-09-09T17:26:03;1.73;;;1.20;;
44165;SDS011;30476;53.468;9.826;2022-09-09T17:28:30;1.00;;;1.00;;